Portada
METAR-TAF:

METAR-TAF

Aeroports :

Txengdu, Xina

latitud: 30-40N, longitud: 104-01E, altitud: 508 m

Observació

L'informe es va fer fa 25 minuts, a les 19:00 UTC
Vent 4 kt del Nord, variant entre Oest/Nord-Oest i Nord-Est
Temperatura 18°C
Humitat 94%
Pressió 1011 hPa
Visibilitat 10 km o més
Escasses núvols a una alçada de 4000 ft, Cumulus congestus.
Núvols disperses a una alçada de 4000 ft
xàfecs de pluja

METAR: ZUUU 011900Z 35002MPS 300V040 9999 -SHRA FEW040TCU SCT040 18/17 Q1011 NOSIG

Hora: 03:25 (19:25 UTC)

Pronòstic

L'informe es va fer fa 4 hores i 19 minuts, a les 15:06 UTC
Pronòstic vàlid del 01 a les 18 UTC al 02 a les 18 UTC
Vent 8 kt del Nord/Nord-Est
Visibilitat: 5000 m
Núvols disperses a una alçada de 4000 ft
boirina

TAF: ZUUU 011506Z 0118/0218 02004MPS 5000 BR SCT040 TX27/0207Z TN19/0122Z

Observacions i pronòstics meteorològics de més de 4000 aeroports (METAR i TAF).

Les estacions disponibles són els punts grocs i vermells al mapa.

Posi el ratolí al punt desitjat per veure el nom de l'estació.

Feu clic per veure les observacions i els pronòstics meteorològics.

Per canviar el mapa: feu clic els botons verds amb una creu de color negre per apropar; al botó verd amb un guió per allunyar la imatge; o en les fletxes verdes per a mapes adjacents.


METAR-TAF: